Pagrindinis puslapis
METAR-TAF:

METAR-TAF

Oro uostai :

Volisas, Prancūzija

platuma: 13-14S, ilguma: 176-10W, Aukštis: 23 m

METAR: trūkstamas

Laikas: 14:29 (02:29 UTC)

Prognozė

Ataskaita buvo paskelbta 3 valandos ir 29 minutes, ne 23:00 UTC
Prognozė galioja nuo 17 metu 00 UTC su 17 metu 24 UTC
Vėjas 12 kt iš Rytų/Pietryčių
Matomumas 10 km arba daugiau
Mažai debesys ne aukštis 2000 ft
Išsisklaidę debesys ne aukštis 4000 ft
Laikinai
nuo 17 metu 00 UTC su 17 metu 14 UTC
lietus
Laikinai
nuo 17 metu 14 UTC su 17 metu 24 UTC
Matomumas: 4500 m
Mažai debesys ne aukštis 2000 ft, aukštai iškilę kamuoliniai debesys.
lietus

TAF: NLWW 162300Z 1700/1724 11012KT 9999 FEW020 SCT040 TEMPO 1700/1714 SHRA TEMPO 1714/1724 4500 SHRA FEW020TCU

Orai ataskaitas ir orų prognozės (METAR, TAF).

turimą stotys yra geltonos ir raudonos taškus žemėlapyje.

Perkelti pele per norėdami pamatyti stoties vardą.

Tada spustelėkite, norėdami matyti oro stebėjimo ir prognozės.

Norėdami pakeisti žemėlapį: spustelėkite ant žalios mygtukų su juodo kryžiaus žemyn,; žalią mygtuką su brūkšneliu, jei norite nutolinti; arba žalių rodyklių gretimoms žemėlapius.


METAR-TAF: